sensor_id;sensor_type;location;lat;lon;timestamp;pressure;altitude;pressure_sealevel;temperature;humidity
32474;BME280;41885;53.190;7.984;2022-09-09T00:03:20;100769.69;;;14.91;86.48
32474;BME280;41885;53.190;7.984;2022-09-09T00:07:34;100772.31;;;14.84;86.59
32474;BME280;41885;53.190;7.984;2022-09-09T00:11:43;100768.31;;;14.80;86.72
32474;BME280;41885;53.190;7.984;2022-09-09T00:15:56;100773.09;;;14.78;87.04
32474;BME280;41885;53.190;7.984;2022-09-09T00:20:03;100762.13;;;14.79;86.98
32474;BME280;41885;53.190;7.984;2022-09-09T00:24:18;100758.16;;;14.75;86.78
32474;BME280;41885;53.190;7.984;2022-09-09T00:28:23;100762.72;;;14.75;86.88
32474;BME280;41885;53.190;7.984;2022-09-09T00:32:30;100773.03;;;14.71;86.99
32474;BME280;41885;53.190;7.984;2022-09-09T00:36:36;100776.34;;;14.73;87.03
32474;BME280;41885;53.190;7.984;2022-09-09T00:40:45;100768.66;;;14.70;87.28
32474;BME280;41885;53.190;7.984;2022-09-09T00:44:55;100773.84;;;14.72;87.55
32474;BME280;41885;53.190;7.984;2022-09-09T00:49:04;100767.25;;;14.74;87.62
32474;BME280;41885;53.190;7.984;2022-09-09T00:53:24;100768.78;;;14.83;87.54
32474;BME280;41885;53.190;7.984;2022-09-09T00:57:31;100769.03;;;14.88;87.31
32474;BME280;41885;53.190;7.984;2022-09-09T01:01:33;100768.22;;;14.88;87.16
32474;BME280;41885;53.190;7.984;2022-09-09T01:05:42;100770.47;;;14.84;87.35
32474;BME280;41885;53.190;7.984;2022-09-09T01:09:52;100767.94;;;14.83;87.43
32474;BME280;41885;53.190;7.984;2022-09-09T01:14:00;100767.94;;;14.83;87.27
32474;BME280;41885;53.190;7.984;2022-09-09T01:18:10;100758.22;;;14.82;87.27
32474;BME280;41885;53.190;7.984;2022-09-09T01:22:26;100756.94;;;14.78;87.35
32474;BME280;41885;53.190;7.984;2022-09-09T01:26:37;100743.44;;;14.71;87.22
32474;BME280;41885;53.190;7.984;2022-09-09T01:30:45;100747.91;;;14.64;87.07
32474;BME280;41885;53.190;7.984;2022-09-09T01:34:50;100748.47;;;14.59;87.24
32474;BME280;41885;53.190;7.984;2022-09-09T01:38:53;100755.72;;;14.59;87.13
32474;BME280;41885;53.190;7.984;2022-09-09T01:42:57;100739.75;;;14.57;87.31
32474;BME280;41885;53.190;7.984;2022-09-09T01:46:59;100746.19;;;14.56;87.28
32474;BME280;41885;53.190;7.984;2022-09-09T01:51:02;100736.25;;;14.57;87.46
32474;BME280;41885;53.190;7.984;2022-09-09T01:55:05;100727.81;;;14.60;87.36
32474;BME280;41885;53.190;7.984;2022-09-09T01:59:23;100738.06;;;14.71;87.79
32474;BME280;41885;53.190;7.984;2022-09-09T02:03:31;100737.91;;;14.79;87.43
32474;BME280;41885;53.190;7.984;2022-09-09T02:07:47;100733.19;;;14.81;87.51
32474;BME280;41885;53.190;7.984;2022-09-09T02:12:10;100730.50;;;14.81;87.43
32474;BME280;41885;53.190;7.984;2022-09-09T02:16:24;100736.88;;;14.80;87.45
32474;BME280;41885;53.190;7.984;2022-09-09T02:20:29;100739.56;;;14.80;87.29
32474;BME280;41885;53.190;7.984;2022-09-09T02:24:35;100725.50;;;14.78;87.41
32474;BME280;41885;53.190;7.984;2022-09-09T02:29:09;100736.25;;;14.78;87.45
32474;BME280;41885;53.190;7.984;2022-09-09T02:33:18;100732.75;;;14.78;87.37
32474;BME280;41885;53.190;7.984;2022-09-09T02:37:27;100726.91;;;14.74;87.34
32474;BME280;41885;53.190;7.984;2022-09-09T02:41:34;100736.38;;;14.70;87.31
32474;BME280;41885;53.190;7.984;2022-09-09T02:45:41;100731.31;;;14.60;87.41
32474;BME280;41885;53.190;7.984;2022-09-09T02:49:57;100732.28;;;14.53;87.69
32474;BME280;41885;53.190;7.984;2022-09-09T02:54:09;100731.97;;;14.48;87.81
32474;BME280;41885;53.190;7.984;2022-09-09T02:58:14;100724.94;;;14.47;88.10
32474;BME280;41885;53.190;7.984;2022-09-09T03:02:21;100727.25;;;14.50;88.20
32474;BME280;41885;53.190;7.984;2022-09-09T03:06:29;100727.53;;;14.55;88.21
32474;BME280;41885;53.190;7.984;2022-09-09T03:10:40;100724.28;;;14.59;88.15
32474;BME280;41885;53.190;7.984;2022-09-09T03:14:41;100734.06;;;14.67;87.98
32474;BME280;41885;53.190;7.984;2022-09-09T03:18:46;100727.47;;;14.70;87.75
32474;BME280;41885;53.190;7.984;2022-09-09T03:22:49;100731.00;;;14.70;87.93
32474;BME280;41885;53.190;7.984;2022-09-09T03:26:52;100746.50;;;14.68;90.11
32474;BME280;41885;53.190;7.984;2022-09-09T03:30:59;100727.47;;;14.70;87.79
32474;BME280;41885;53.190;7.984;2022-09-09T03:35:00;100730.31;;;14.61;87.50
32474;BME280;41885;53.190;7.984;2022-09-09T03:39:04;100742.34;;;14.65;87.63
32474;BME280;41885;53.190;7.984;2022-09-09T03:43:05;100744.38;;;14.63;87.64
32474;BME280;41885;53.190;7.984;2022-09-09T03:47:08;100743.94;;;14.60;87.75
32474;BME280;41885;53.190;7.984;2022-09-09T03:51:10;100750.91;;;14.54;87.92
32474;BME280;41885;53.190;7.984;2022-09-09T03:55:13;100740.44;;;14.45;87.92
32474;BME280;41885;53.190;7.984;2022-09-09T03:59:15;100755.94;;;14.42;87.99
32474;BME280;41885;53.190;7.984;2022-09-09T04:03:17;100755.84;;;14.36;88.18
32474;BME280;41885;53.190;7.984;2022-09-09T04:07:19;100756.78;;;14.28;88.20
32474;BME280;41885;53.190;7.984;2022-09-09T04:11:23;100758.56;;;14.21;88.39
32474;BME280;41885;53.190;7.984;2022-09-09T04:15:27;100762.84;;;14.15;88.65
32474;BME280;41885;53.190;7.984;2022-09-09T04:19:29;100765.06;;;14.12;88.63
32474;BME280;41885;53.190;7.984;2022-09-09T04:23:32;100756.72;;;14.07;88.68
32474;BME280;41885;53.190;7.984;2022-09-09T04:27:36;100764.16;;;14.05;88.87
32474;BME280;41885;53.190;7.984;2022-09-09T04:31:39;100757.97;;;14.04;88.76
32474;BME280;41885;53.190;7.984;2022-09-09T04:35:44;100763.50;;;14.03;88.59
32474;BME280;41885;53.190;7.984;2022-09-09T04:39:46;100767.38;;;14.00;88.70
32474;BME280;41885;53.190;7.984;2022-09-09T04:43:50;100772.97;;;13.99;88.82
32474;BME280;41885;53.190;7.984;2022-09-09T04:47:55;100768.78;;;13.96;88.83
32474;BME280;41885;53.190;7.984;2022-09-09T04:51:57;100775.19;;;13.95;88.82
32474;BME280;41885;53.190;7.984;2022-09-09T04:56:03;100771.19;;;13.91;89.19
32474;BME280;41885;53.190;7.984;2022-09-09T05:00:12;100777.59;;;13.90;89.02
32474;BME280;41885;53.190;7.984;2022-09-09T05:04:15;100774.25;;;13.88;89.04
32474;BME280;41885;53.190;7.984;2022-09-09T05:08:17;100776.09;;;13.87;88.89
32474;BME280;41885;53.190;7.984;2022-09-09T05:12:19;100792.66;;;13.91;89.32
32474;BME280;41885;53.190;7.984;2022-09-09T05:16:26;100791.75;;;13.99;89.25
32474;BME280;41885;53.190;7.984;2022-09-09T05:20:29;100795.38;;;14.06;91.29
32474;BME280;41885;53.190;7.984;2022-09-09T05:24:32;100795.97;;;14.23;89.53
32474;BME280;41885;53.190;7.984;2022-09-09T05:28:35;100799.50;;;14.38;89.13
32474;BME280;41885;53.190;7.984;2022-09-09T05:32:39;100796.97;;;14.51;88.84
32474;BME280;41885;53.190;7.984;2022-09-09T05:36:41;100806.44;;;14.62;88.61
32474;BME280;41885;53.190;7.984;2022-09-09T05:40:47;100806.13;;;14.72;88.46
32474;BME280;41885;53.190;7.984;2022-09-09T05:44:50;100807.13;;;14.71;88.62
32474;BME280;41885;53.190;7.984;2022-09-09T05:48:57;100810.13;;;14.61;88.94
32474;BME280;41885;53.190;7.984;2022-09-09T05:53:03;100797.16;;;14.50;89.53
32474;BME280;41885;53.190;7.984;2022-09-09T05:57:05;100810.44;;;14.51;89.75
32474;BME280;41885;53.190;7.984;2022-09-09T06:01:08;100806.03;;;14.50;89.89
32474;BME280;41885;53.190;7.984;2022-09-09T06:05:12;100798.84;;;14.51;89.99
32474;BME280;41885;53.190;7.984;2022-09-09T06:09:15;100804.50;;;14.56;90.42
32474;BME280;41885;53.190;7.984;2022-09-09T06:13:17;100810.59;;;14.64;90.44
32474;BME280;41885;53.190;7.984;2022-09-09T06:17:19;100812.06;;;14.67;90.38
32474;BME280;41885;53.190;7.984;2022-09-09T06:21:24;100807.03;;;14.79;90.53
32474;BME280;41885;53.190;7.984;2022-09-09T06:25:27;100811.69;;;14.92;90.44
32474;BME280;41885;53.190;7.984;2022-09-09T06:29:29;100809.78;;;15.07;90.45
32474;BME280;41885;53.190;7.984;2022-09-09T06:33:32;100798.75;;;15.23;90.64
32474;BME280;41885;53.190;7.984;2022-09-09T06:37:37;100809.63;;;15.37;90.34
32474;BME280;41885;53.190;7.984;2022-09-09T06:41:38;100799.13;;;15.42;90.17
32474;BME280;41885;53.190;7.984;2022-09-09T06:45:55;100802.06;;;15.53;90.36
32474;BME280;41885;53.190;7.984;2022-09-09T06:49:58;100799.19;;;15.76;89.92
32474;BME280;41885;53.190;7.984;2022-09-09T06:54:02;100804.50;;;16.04;90.02
32474;BME280;41885;53.190;7.984;2022-09-09T06:58:08;100796.34;;;16.33;89.47
32474;BME280;41885;53.190;7.984;2022-09-09T07:02:10;100808.25;;;16.58;89.00
32474;BME280;41885;53.190;7.984;2022-09-09T07:06:14;100800.06;;;16.80;88.42
32474;BME280;41885;53.190;7.984;2022-09-09T07:10:19;100809.47;;;17.10;88.52
32474;BME280;41885;53.190;7.984;2022-09-09T07:14:21;100807.78;;;17.29;87.81
32474;BME280;41885;53.190;7.984;2022-09-09T07:18:28;100818.19;;;17.46;86.95
32474;BME280;41885;53.190;7.984;2022-09-09T07:22:31;100817.34;;;17.58;87.04
32474;BME280;41885;53.190;7.984;2022-09-09T07:26:35;100827.31;;;17.84;86.42
32474;BME280;41885;53.190;7.984;2022-09-09T07:30:37;100818.09;;;18.12;86.03
32474;BME280;41885;53.190;7.984;2022-09-09T07:34:40;100826.09;;;18.45;85.90
32474;BME280;41885;53.190;7.984;2022-09-09T07:38:43;100832.16;;;18.86;85.13
32474;BME280;41885;53.190;7.984;2022-09-09T07:42:48;100826.66;;;19.31;84.57
32474;BME280;41885;53.190;7.984;2022-09-09T07:46:51;100823.69;;;19.64;84.47
32474;BME280;41885;53.190;7.984;2022-09-09T07:51:06;100825.31;;;21.05;83.20
32474;BME280;41885;53.190;7.984;2022-09-09T07:55:08;100827.88;;;22.01;79.99
32474;BME280;41885;53.190;7.984;2022-09-09T07:59:12;100826.34;;;22.17;78.21
32474;BME280;41885;53.190;7.984;2022-09-09T08:03:16;100825.38;;;22.11;78.18
32474;BME280;41885;53.190;7.984;2022-09-09T08:07:18;100823.03;;;22.15;78.13
32474;BME280;41885;53.190;7.984;2022-09-09T08:11:28;100827.94;;;22.53;77.77
32474;BME280;41885;53.190;7.984;2022-09-09T08:15:32;100816.63;;;24.30;76.79
32474;BME280;41885;53.190;7.984;2022-09-09T08:19:35;100818.78;;;26.84;72.83
32474;BME280;41885;53.190;7.984;2022-09-09T08:23:40;100819.44;;;28.33;68.77
32474;BME280;41885;53.190;7.984;2022-09-09T08:27:43;100808.72;;;29.54;59.27
32474;BME280;41885;53.190;7.984;2022-09-09T08:31:48;100806.59;;;31.04;63.15
32474;BME280;41885;53.190;7.984;2022-09-09T08:35:51;100801.63;;;31.39;60.48
32474;BME280;41885;53.190;7.984;2022-09-09T08:39:53;100810.72;;;32.13;57.13
32474;BME280;41885;53.190;7.984;2022-09-09T08:44:01;100805.41;;;32.89;52.13
32474;BME280;41885;53.190;7.984;2022-09-09T08:48:20;100824.81;;;32.39;44.47
32474;BME280;41885;53.190;7.984;2022-09-09T08:52:37;100816.31;;;31.67;50.95
32474;BME280;41885;53.190;7.984;2022-09-09T08:56:41;100823.06;;;30.09;54.08
32474;BME280;41885;53.190;7.984;2022-09-09T09:00:55;100819.34;;;28.63;54.52
32474;BME280;41885;53.190;7.984;2022-09-09T09:05:11;100814.69;;;27.63;56.23
32474;BME280;41885;53.190;7.984;2022-09-09T09:09:24;100815.22;;;27.09;58.87
32474;BME280;41885;53.190;7.984;2022-09-09T09:13:35;100820.63;;;26.58;60.72
32474;BME280;41885;53.190;7.984;2022-09-09T09:17:41;100832.97;;;26.60;61.67
32474;BME280;41885;53.190;7.984;2022-09-09T09:21:51;100828.38;;;26.71;61.87
32474;BME280;41885;53.190;7.984;2022-09-09T09:25:57;100826.16;;;26.73;62.19
32474;BME280;41885;53.190;7.984;2022-09-09T09:30:12;100825.03;;;26.49;61.87
32474;BME280;41885;53.190;7.984;2022-09-09T09:34:16;100835.84;;;26.28;62.56
32474;BME280;41885;53.190;7.984;2022-09-09T09:38:22;100837.16;;;26.15;62.67
32474;BME280;41885;53.190;7.984;2022-09-09T09:42:28;100841.44;;;25.59;62.93
32474;BME280;41885;53.190;7.984;2022-09-09T09:46:31;100840.50;;;25.43;64.06
32474;BME280;41885;53.190;7.984;2022-09-09T09:50:48;100837.16;;;25.73;64.07
32474;BME280;41885;53.190;7.984;2022-09-09T09:54:53;100830.63;;;26.21;64.30
32474;BME280;41885;53.190;7.984;2022-09-09T09:58:56;100837.06;;;26.53;63.94
32474;BME280;41885;53.190;7.984;2022-09-09T10:03:21;100829.44;;;26.55;61.63
32474;BME280;41885;53.190;7.984;2022-09-09T10:07:24;100825.91;;;26.80;63.96
32474;BME280;41885;53.190;7.984;2022-09-09T10:11:38;100833.88;;;26.81;62.57
32474;BME280;41885;53.190;7.984;2022-09-09T10:15:52;100828.19;;;27.19;63.09
32474;BME280;41885;53.190;7.984;2022-09-09T10:20:15;100830.06;;;27.69;59.33
32474;BME280;41885;53.190;7.984;2022-09-09T10:33:35;100814.59;;;31.06;59.38
32474;BME280;41885;53.190;7.984;2022-09-09T10:38:10;100830.44;;;31.14;55.26
32474;BME280;41885;53.190;7.984;2022-09-09T10:42:15;100832.06;;;30.15;57.06
32474;BME280;41885;53.190;7.984;2022-09-09T10:46:24;100844.97;;;28.93;52.42
32474;BME280;41885;53.190;7.984;2022-09-09T10:50:40;100836.53;;;28.19;55.88
32474;BME280;41885;53.190;7.984;2022-09-09T10:54:51;100819.34;;;28.63;54.32
32474;BME280;41885;53.190;7.984;2022-09-09T10:58:59;100811.78;;;29.53;57.54
32474;BME280;41885;53.190;7.984;2022-09-09T11:03:04;100810.81;;;29.97;56.85
32474;BME280;41885;53.190;7.984;2022-09-09T11:07:10;100814.88;;;29.46;55.84
32474;BME280;41885;53.190;7.984;2022-09-09T11:11:17;100818.91;;;28.41;55.62
32474;BME280;41885;53.190;7.984;2022-09-09T11:15:23;100832.84;;;27.28;56.33
32474;BME280;41885;53.190;7.984;2022-09-09T11:19:34;100827.06;;;26.21;57.60
32474;BME280;41885;53.190;7.984;2022-09-09T11:23:40;100836.41;;;25.40;59.97
32474;BME280;41885;53.190;7.984;2022-09-09T11:27:56;100844.00;;;24.13;64.87
32474;BME280;41885;53.190;7.984;2022-09-09T11:32:09;100834.28;;;23.16;66.46
32474;BME280;41885;53.190;7.984;2022-09-09T11:36:47;100834.28;;;22.59;69.25
32474;BME280;41885;53.190;7.984;2022-09-09T11:40:56;100829.41;;;22.32;68.74
32474;BME280;41885;53.190;7.984;2022-09-09T11:45:09;100832.63;;;22.05;68.75
32474;BME280;41885;53.190;7.984;2022-09-09T11:49:25;100820.09;;;21.81;71.68
32474;BME280;41885;53.190;7.984;2022-09-09T11:53:29;100812.63;;;22.00;68.45
32474;BME280;41885;53.190;7.984;2022-09-09T11:57:34;100816.09;;;22.76;68.82
32474;BME280;41885;53.190;7.984;2022-09-09T12:01:39;100806.78;;;24.07;66.03
32474;BME280;41885;53.190;7.984;2022-09-09T12:05:44;100806.91;;;24.88;64.54
32474;BME280;41885;53.190;7.984;2022-09-09T12:09:50;100809.03;;;25.40;63.19
32474;BME280;41885;53.190;7.984;2022-09-09T12:13:55;100802.53;;;25.46;61.26
32474;BME280;41885;53.190;7.984;2022-09-09T12:17:58;100803.81;;;25.06;61.68
32474;BME280;41885;53.190;7.984;2022-09-09T12:22:05;100806.44;;;24.96;61.66
32474;BME280;41885;53.190;7.984;2022-09-09T12:26:29;100801.94;;;24.85;61.42
32474;BME280;41885;53.190;7.984;2022-09-09T12:30:37;100799.06;;;24.97;62.13
32474;BME280;41885;53.190;7.984;2022-09-09T12:34:44;100791.53;;;25.09;62.52
32474;BME280;41885;53.190;7.984;2022-09-09T12:38:49;100792.16;;;25.16;61.86
32474;BME280;41885;53.190;7.984;2022-09-09T12:42:54;100792.78;;;24.96;61.05
32474;BME280;41885;53.190;7.984;2022-09-09T12:46:58;100789.84;;;24.76;61.60
32474;BME280;41885;53.190;7.984;2022-09-09T12:51:01;100794.53;;;24.53;61.70
32474;BME280;41885;53.190;7.984;2022-09-09T12:55:05;100786.00;;;24.28;62.36
32474;BME280;41885;53.190;7.984;2022-09-09T12:59:23;100794.47;;;24.04;63.50
32474;BME280;41885;53.190;7.984;2022-09-09T13:03:26;100790.00;;;23.98;63.67
32474;BME280;41885;53.190;7.984;2022-09-09T13:07:28;100780.41;;;23.96;63.98
32474;BME280;41885;53.190;7.984;2022-09-09T13:11:35;100784.75;;;23.92;64.11
32474;BME280;41885;53.190;7.984;2022-09-09T13:15:40;100801.88;;;23.87;64.19
32474;BME280;41885;53.190;7.984;2022-09-09T13:19:50;100791.97;;;23.64;64.94
32474;BME280;41885;53.190;7.984;2022-09-09T13:23:53;100786.13;;;23.55;64.99
32474;BME280;41885;53.190;7.984;2022-09-09T13:27:59;100780.81;;;23.65;64.66
32474;BME280;41885;53.190;7.984;2022-09-09T13:32:05;100784.94;;;23.68;64.69
32474;BME280;41885;53.190;7.984;2022-09-09T13:36:09;100783.72;;;23.76;64.56
32474;BME280;41885;53.190;7.984;2022-09-09T13:40:17;100799.06;;;23.82;64.69
32474;BME280;41885;53.190;7.984;2022-09-09T13:44:22;100810.94;;;23.93;64.25
32474;BME280;41885;53.190;7.984;2022-09-09T13:48:27;100821.34;;;23.96;64.28
32474;BME280;41885;53.190;7.984;2022-09-09T13:52:30;100822.75;;;23.98;64.10
32474;BME280;41885;53.190;7.984;2022-09-09T13:56:32;100816.31;;;24.04;63.68
32474;BME280;41885;53.190;7.984;2022-09-09T14:00:34;100817.06;;;24.22;63.51
32474;BME280;41885;53.190;7.984;2022-09-09T14:04:38;100805.19;;;24.33;63.35
32474;BME280;41885;53.190;7.984;2022-09-09T14:08:41;100803.69;;;24.42;63.51
32474;BME280;41885;53.190;7.984;2022-09-09T14:12:43;100793.66;;;24.48;63.63
32474;BME280;41885;53.190;7.984;2022-09-09T14:16:47;100788.53;;;24.56;63.40
32474;BME280;41885;53.190;7.984;2022-09-09T14:20:50;100779.38;;;24.68;63.15
32474;BME280;41885;53.190;7.984;2022-09-09T14:24:51;100769.16;;;24.85;62.62
32474;BME280;41885;53.190;7.984;2022-09-09T14:28:53;100762.41;;;24.93;62.59
32474;BME280;41885;53.190;7.984;2022-09-09T14:32:55;100762.75;;;25.01;62.80
32474;BME280;41885;53.190;7.984;2022-09-09T14:36:58;100757.94;;;25.14;62.05
32474;BME280;41885;53.190;7.984;2022-09-09T14:41:00;100759.09;;;25.18;61.53
32474;BME280;41885;53.190;7.984;2022-09-09T14:45:04;100768.31;;;25.12;60.69
32474;BME280;41885;53.190;7.984;2022-09-09T14:49:06;100754.06;;;25.10;60.72
32474;BME280;41885;53.190;7.984;2022-09-09T14:53:09;100744.78;;;25.11;60.87
32474;BME280;41885;53.190;7.984;2022-09-09T14:57:11;100748.03;;;25.08;61.03
32474;BME280;41885;53.190;7.984;2022-09-09T15:01:14;100746.88;;;24.98;61.22
32474;BME280;41885;53.190;7.984;2022-09-09T15:05:16;100743.19;;;24.82;61.62
32474;BME280;41885;53.190;7.984;2022-09-09T15:09:19;100734.34;;;24.70;61.72
32474;BME280;41885;53.190;7.984;2022-09-09T15:13:21;100735.63;;;24.41;61.52
32474;BME280;41885;53.190;7.984;2022-09-09T15:17:23;100753.28;;;24.06;61.42
32474;BME280;41885;53.190;7.984;2022-09-09T15:21:29;100745.09;;;23.67;61.71
32474;BME280;41885;53.190;7.984;2022-09-09T15:25:32;100747.56;;;23.30;62.21
32474;BME280;41885;53.190;7.984;2022-09-09T15:29:34;100747.44;;;22.91;62.80
32474;BME280;41885;53.190;7.984;2022-09-09T15:33:36;100761.16;;;22.22;65.44
32474;BME280;41885;53.190;7.984;2022-09-09T15:37:38;100758.97;;;21.13;69.88
32474;BME280;41885;53.190;7.984;2022-09-09T15:41:41;100749.06;;;20.47;72.43
32474;BME280;41885;53.190;7.984;2022-09-09T15:45:45;100761.94;;;20.03;74.14
32474;BME280;41885;53.190;7.984;2022-09-09T15:49:47;100770.38;;;19.76;74.83
32474;BME280;41885;53.190;7.984;2022-09-09T15:53:53;100773.41;;;19.61;76.84
32474;BME280;41885;53.190;7.984;2022-09-09T15:57:56;100764.91;;;19.58;76.83
32474;BME280;41885;53.190;7.984;2022-09-09T16:01:58;100766.78;;;19.57;76.99
32474;BME280;41885;53.190;7.984;2022-09-09T16:06:01;100764.59;;;19.47;77.21
32474;BME280;41885;53.190;7.984;2022-09-09T16:10:03;100775.13;;;19.37;78.03
32474;BME280;41885;53.190;7.984;2022-09-09T16:14:07;100776.00;;;19.31;78.65
32474;BME280;41885;53.190;7.984;2022-09-09T16:18:09;100786.22;;;19.29;78.91
32474;BME280;41885;53.190;7.984;2022-09-09T16:22:11;100777.97;;;19.17;78.91
32474;BME280;41885;53.190;7.984;2022-09-09T16:26:14;100784.94;;;19.07;79.33
32474;BME280;41885;53.190;7.984;2022-09-09T16:30:18;100788.53;;;19.00;79.72
32474;BME280;41885;53.190;7.984;2022-09-09T16:34:20;100788.56;;;18.94;80.14
32474;BME280;41885;53.190;7.984;2022-09-09T16:38:22;100794.00;;;18.94;79.73
32474;BME280;41885;53.190;7.984;2022-09-09T16:42:24;100801.09;;;18.88;79.72
32474;BME280;41885;53.190;7.984;2022-09-09T16:46:29;100813.81;;;18.88;79.57
32474;BME280;41885;53.190;7.984;2022-09-09T16:50:31;100818.78;;;18.91;79.66
32474;BME280;41885;53.190;7.984;2022-09-09T16:54:33;100832.72;;;18.94;79.46
32474;BME280;41885;53.190;7.984;2022-09-09T16:58:35;100830.28;;;18.86;79.88
32474;BME280;41885;53.190;7.984;2022-09-09T17:02:38;100832.34;;;18.91;80.18
32474;BME280;41885;53.190;7.984;2022-09-09T17:06:40;100842.09;;;18.92;79.85
32474;BME280;41885;53.190;7.984;2022-09-09T17:10:42;100850.69;;;18.82;79.67
32474;BME280;41885;53.190;7.984;2022-09-09T17:14:44;100844.75;;;18.60;79.28
32474;BME280;41885;53.190;7.984;2022-09-09T17:18:47;100847.72;;;18.45;79.49
32474;BME280;41885;53.190;7.984;2022-09-09T17:22:49;100854.84;;;18.33;79.35
32474;BME280;41885;53.190;7.984;2022-09-09T17:26:51;100853.00;;;18.27;79.78
32474;BME280;41885;53.190;7.984;2022-09-09T17:30:53;100853.66;;;18.22;79.99
32474;BME280;41885;53.190;7.984;2022-09-09T17:34:56;100861.56;;;18.17;79.98
32474;BME280;41885;53.190;7.984;2022-09-09T17:38:59;100862.19;;;18.12;80.18
32474;BME280;41885;53.190;7.984;2022-09-09T17:43:01;100862.00;;;18.07;80.19
32474;BME280;41885;53.190;7.984;2022-09-09T17:47:03;100867.84;;;17.98;79.92
32474;BME280;41885;53.190;7.984;2022-09-09T17:51:11;100871.38;;;17.85;80.12
32474;BME280;41885;53.190;7.984;2022-09-09T17:55:13;100869.91;;;17.76;80.30
32474;BME280;41885;53.190;7.984;2022-09-09T17:59:17;100866.38;;;17.69;80.52
32474;BME280;41885;53.190;7.984;2022-09-09T18:03:19;100871.56;;;17.63;80.27
32474;BME280;41885;53.190;7.984;2022-09-09T18:07:22;100862.66;;;17.56;80.54
32474;BME280;41885;53.190;7.984;2022-09-09T18:11:26;100868.25;;;17.55;80.78
32474;BME280;41885;53.190;7.984;2022-09-09T18:15:28;100876.97;;;17.57;81.20
32474;BME280;41885;53.190;7.984;2022-09-09T18:19:32;100872.81;;;17.54;80.72
32474;BME280;41885;53.190;7.984;2022-09-09T18:23:35;100877.38;;;17.54;81.04
32474;BME280;41885;53.190;7.984;2022-09-09T18:27:37;100874.47;;;17.42;84.56
32474;BME280;41885;53.190;7.984;2022-09-09T18:31:39;100883.00;;;17.39;80.80
32474;BME280;41885;53.190;7.984;2022-09-09T18:35:41;100884.25;;;17.36;81.14
32474;BME280;41885;53.190;7.984;2022-09-09T18:39:45;100872.19;;;17.32;81.43
32474;BME280;41885;53.190;7.984;2022-09-09T18:43:48;100877.38;;;17.27;81.28
32474;BME280;41885;53.190;7.984;2022-09-09T18:47:50;100875.69;;;17.19;81.60
32474;BME280;41885;53.190;7.984;2022-09-09T18:51:52;100886.72;;;17.18;81.36
32474;BME280;41885;53.190;7.984;2022-09-09T18:55:58;100881.28;;;17.11;81.73
32474;BME280;41885;53.190;7.984;2022-09-09T19:00:02;100876.72;;;17.05;81.82
32474;BME280;41885;53.190;7.984;2022-09-09T19:04:05;100876.47;;;17.00;81.96
32474;BME280;41885;53.190;7.984;2022-09-09T19:08:07;100871.03;;;16.80;84.98
32474;BME280;41885;53.190;7.984;2022-09-09T19:12:11;100881.66;;;16.82;82.09
32474;BME280;41885;53.190;7.984;2022-09-09T19:16:13;100888.47;;;16.78;82.01
32474;BME280;41885;53.190;7.984;2022-09-09T19:20:15;100889.22;;;16.71;82.38
32474;BME280;41885;53.190;7.984;2022-09-09T19:24:21;100891.91;;;16.65;82.26
32474;BME280;41885;53.190;7.984;2022-09-09T19:28:25;100895.81;;;16.62;82.31
32474;BME280;41885;53.190;7.984;2022-09-09T19:32:26;100908.72;;;16.60;82.63
32474;BME280;41885;53.190;7.984;2022-09-09T19:36:28;100902.88;;;16.57;82.68
32474;BME280;41885;53.190;7.984;2022-09-09T19:40:30;100919.25;;;16.55;82.95
32474;BME280;41885;53.190;7.984;2022-09-09T19:44:37;100918.41;;;16.55;82.85
32474;BME280;41885;53.190;7.984;2022-09-09T19:48:40;100918.38;;;16.48;82.98
32474;BME280;41885;53.190;7.984;2022-09-09T19:52:42;100914.19;;;16.39;86.68
32474;BME280;41885;53.190;7.984;2022-09-09T19:56:44;100921.88;;;16.42;82.88
32474;BME280;41885;53.190;7.984;2022-09-09T20:00:47;100919.84;;;16.44;82.94
32474;BME280;41885;53.190;7.984;2022-09-09T20:04:49;100917.75;;;16.46;82.95
32474;BME280;41885;53.190;7.984;2022-09-09T20:08:52;100920.66;;;16.44;82.76
32474;BME280;41885;53.190;7.984;2022-09-09T20:12:54;100925.63;;;16.41;83.06
32474;BME280;41885;53.190;7.984;2022-09-09T20:16:57;100922.50;;;16.37;83.30
32474;BME280;41885;53.190;7.984;2022-09-09T20:21:01;100920.78;;;16.30;83.32
32474;BME280;41885;53.190;7.984;2022-09-09T20:25:03;100905.59;;;16.22;83.42
32474;BME280;41885;53.190;7.984;2022-09-09T20:29:09;100911.34;;;16.12;83.52
32474;BME280;41885;53.190;7.984;2022-09-09T20:33:12;100913.38;;;16.10;83.30
32474;BME280;41885;53.190;7.984;2022-09-09T20:37:15;100916.47;;;16.07;83.44
32474;BME280;41885;53.190;7.984;2022-09-09T20:41:18;100921.66;;;16.02;83.55
32474;BME280;41885;53.190;7.984;2022-09-09T20:45:21;100926.13;;;15.95;83.75
32474;BME280;41885;53.190;7.984;2022-09-09T20:49:25;100920.06;;;15.86;83.94
32474;BME280;41885;53.190;7.984;2022-09-09T20:53:27;100927.72;;;15.83;83.97
32474;BME280;41885;53.190;7.984;2022-09-09T20:57:29;100922.91;;;15.78;83.88
32474;BME280;41885;53.190;7.984;2022-09-09T21:01:30;100923.09;;;15.76;84.03
32474;BME280;41885;53.190;7.984;2022-09-09T21:05:34;100921.81;;;15.72;84.10
32474;BME280;41885;53.190;7.984;2022-09-09T21:09:38;100929.25;;;15.70;84.21
32474;BME280;41885;53.190;7.984;2022-09-09T21:13:40;100925.09;;;15.68;84.17
32474;BME280;41885;53.190;7.984;2022-09-09T21:17:43;100931.66;;;15.65;84.16
32474;BME280;41885;53.190;7.984;2022-09-09T21:21:47;100931.41;;;15.60;84.55
32474;BME280;41885;53.190;7.984;2022-09-09T21:25:50;100939.69;;;15.58;84.62
32474;BME280;41885;53.190;7.984;2022-09-09T21:29:52;100940.50;;;15.59;84.62
32474;BME280;41885;53.190;7.984;2022-09-09T21:33:54;100943.59;;;15.56;84.80